Time;durP1;ratioP1;P1;durP2;ratioP2;P2;SDS_P1;SDS_P2;PMS_P1;PMS_P2;Temp;Humidity;BMP_temperature;BMP_pressure;BME280_temperature;BME280_humidity;BME280_pressure;Samples;Min_cycle;Max_cycle;Signal;HPM_P1;HPM_P2
2023/09/22 00:00:38;;;;;;;0.40;0.40;;;14.10;99.90;;;;;;5052194;28;20913;-61
2023/09/22 00:03:07;;;;;;;0.40;0.40;;;14.10;99.90;;;;;;5052102;28;20408;-61
2023/09/22 00:05:33;;;;;;;0.43;0.43;;;14.10;99.90;;;;;;5051673;28;20209;-61
2023/09/22 00:07:59;;;;;;;0.30;0.30;;;14.00;99.90;;;;;;5052075;28;20508;-61
2023/09/22 00:10:24;;;;;;;0.30;0.30;;;14.00;99.90;;;;;;5052064;28;20205;-61
2023/09/22 00:12:50;;;;;;;0.57;0.37;;;13.90;99.90;;;;;;5052052;28;20253;-61
2023/09/22 00:15:15;;;;;;;0.30;0.30;;;13.80;99.90;;;;;;5051775;28;20711;-61
2023/09/22 00:17:41;;;;;;;0.40;0.40;;;13.80;99.90;;;;;;5051552;28;20198;-61
2023/09/22 00:20:08;;;;;;;0.93;0.80;;;13.80;99.90;;;;;;5051881;28;20178;-61
2023/09/22 00:22:34;;;;;;;0.30;0.30;;;13.80;99.90;;;;;;5051915;28;20412;-61
2023/09/22 00:25:00;;;;;;;1.13;0.60;;;13.80;99.90;;;;;;5051829;28;20508;-61
2023/09/22 00:27:26;;;;;;;1.90;0.40;;;13.90;99.90;;;;;;5051460;28;20855;-61
2023/09/22 00:29:52;;;;;;;0.40;0.40;;;13.90;99.90;;;;;;5051757;28;20417;-61
2023/09/22 00:32:17;;;;;;;0.30;0.30;;;14.00;99.90;;;;;;5051481;28;20412;-61
2023/09/22 00:34:43;;;;;;;0.87;0.87;;;14.10;99.90;;;;;;5051443;28;20174;-61
2023/09/22 00:37:09;;;;;;;0.50;0.50;;;14.20;99.90;;;;;;5051636;28;20630;-61
2023/09/22 00:39:35;;;;;;;0.40;0.40;;;14.20;99.90;;;;;;5051600;28;20176;-61
2023/09/22 00:42:01;;;;;;;0.30;0.30;;;14.20;99.90;;;;;;5051649;28;20176;-61
2023/09/22 00:44:27;;;;;;;0.30;0.30;;;14.20;99.90;;;;;;5051540;28;20407;-61
2023/09/22 00:46:53;;;;;;;0.40;0.40;;;14.20;99.90;;;;;;5050811;28;20444;-61
2023/09/22 00:49:19;;;;;;;0.50;0.50;;;14.20;99.90;;;;;;5033588;28;20416;-61
2023/09/22 00:51:45;;;;;;;0.30;0.30;;;14.20;99.90;;;;;;5051523;28;20191;-61
2023/09/22 00:54:11;;;;;;;0.40;0.40;;;14.20;99.90;;;;;;5051413;28;20503;-61
2023/09/22 00:56:37;;;;;;;0.60;0.60;;;14.20;99.90;;;;;;5051357;28;20202;-61
2023/09/22 00:59:03;;;;;;;1.03;0.70;;;14.20;99.90;;;;;;5051322;28;20453;-61
2023/09/22 01:01:28;;;;;;;0.30;0.30;;;14.20;99.90;;;;;;5051252;28;20177;-60
2023/09/22 01:03:55;;;;;;;0.63;0.63;;;14.10;99.90;;;;;;5051375;28;20406;-61
2023/09/22 01:06:21;;;;;;;0.57;0.40;;;14.10;99.90;;;;;;5050897;28;20260;-61
2023/09/22 01:08:46;;;;;;;0.30;0.30;;;14.20;99.90;;;;;;5051344;28;20410;-61
2023/09/22 01:11:15;;;;;;;0.60;0.60;;;14.30;99.90;;;;;;5051252;28;20182;-61
2023/09/22 01:13:42;;;;;;;0.43;0.43;;;14.30;99.90;;;;;;5051288;28;20665;-61
2023/09/22 01:16:07;;;;;;;0.53;0.53;;;14.30;99.90;;;;;;5050712;28;20573;-61
2023/09/22 01:18:33;;;;;;;0.60;0.60;;;14.30;99.90;;;;;;5051218;28;20437;-61
2023/09/22 01:20:59;;;;;;;0.37;0.37;;;14.20;99.90;;;;;;5051221;28;20213;-61
2023/09/22 01:23:24;;;;;;;0.40;0.40;;;14.20;99.90;;;;;;5051320;28;20181;-61
2023/09/22 01:25:50;;;;;;;0.30;0.30;;;14.20;99.90;;;;;;5050786;28;20433;-61
2023/09/22 01:28:17;;;;;;;0.40;0.40;;;14.20;99.90;;;;;;5050995;28;20172;-61
2023/09/22 01:30:43;;;;;;;0.30;0.30;;;14.20;99.90;;;;;;5050895;28;20178;-60
2023/09/22 01:33:09;;;;;;;0.50;0.40;;;14.20;99.90;;;;;;5051078;28;20756;-61
2023/09/22 01:35:35;;;;;;;0.40;0.40;;;14.20;99.90;;;;;;5050880;28;20433;-61
2023/09/22 01:38:12;;;;;;;0.60;0.60;;;14.20;99.90;;;;;;5050996;28;20420;-61
2023/09/22 01:40:39;;;;;;;0.40;0.40;;;14.20;99.90;;;;;;5050937;28;20415;-61
2023/09/22 01:43:05;;;;;;;0.50;0.50;;;14.20;99.90;;;;;;5050888;28;20403;-61
2023/09/22 01:45:33;;;;;;;0.50;0.50;;;14.20;99.90;;;;;;5052158;28;20551;-61
2023/09/22 01:47:59;;;;;;;0.40;0.40;;;14.20;99.90;;;;;;5054901;28;20178;-61
2023/09/22 01:50:25;;;;;;;0.40;0.40;;;14.20;99.90;;;;;;5054583;28;20454;-61
2023/09/22 01:52:52;;;;;;;0.30;0.30;;;14.20;99.90;;;;;;5054649;28;20209;-61
2023/09/22 01:55:18;;;;;;;0.70;0.60;;;14.20;99.90;;;;;;5054504;28;20432;-61
2023/09/22 01:57:49;;;;;;;0.40;0.40;;;14.20;99.90;;;;;;5054435;28;20452;-61
2023/09/22 02:00:16;;;;;;;0.93;0.50;;;14.20;99.90;;;;;;5054492;28;20419;-61
2023/09/22 02:02:43;;;;;;;0.37;0.37;;;14.20;99.90;;;;;;5054530;28;20505;-61
2023/09/22 02:05:14;;;;;;;0.40;0.40;;;14.30;99.90;;;;;;5054131;28;20515;-61
2023/09/22 02:07:40;;;;;;;0.40;0.40;;;14.30;99.90;;;;;;5054115;28;20422;-61
2023/09/22 02:10:09;;;;;;;0.30;0.30;;;14.30;99.90;;;;;;5054245;28;20414;-61
2023/09/22 02:12:35;;;;;;;0.40;0.40;;;14.20;99.90;;;;;;5054246;28;20472;-61
2023/09/22 02:15:01;;;;;;;0.70;0.50;;;14.00;99.90;;;;;;5054388;28;20513;-61
2023/09/22 02:17:27;;;;;;;0.63;0.63;;;14.00;99.90;;;;;;5053726;28;20551;-61
2023/09/22 02:19:53;;;;;;;0.30;0.30;;;14.00;99.90;;;;;;5054231;28;20547;-61
2023/09/22 02:22:18;;;;;;;0.40;0.40;;;14.00;99.90;;;;;;5054099;28;20652;-61
2023/09/22 02:24:44;;;;;;;0.40;0.40;;;14.10;99.90;;;;;;5053952;28;20401;-61
2023/09/22 02:27:10;;;;;;;0.73;0.73;;;14.20;99.90;;;;;;5070695;28;20206;-61
2023/09/22 02:29:36;;;;;;;0.30;0.30;;;14.20;99.90;;;;;;5074224;28;20898;-61
2023/09/22 02:32:01;;;;;;;0.40;0.40;;;14.10;99.90;;;;;;5073954;28;20181;-61
2023/09/22 02:34:27;;;;;;;0.43;0.43;;;14.10;99.90;;;;;;5074688;28;20171;-61
2023/09/22 02:36:53;;;;;;;0.40;0.40;;;14.00;99.90;;;;;;5073408;28;20202;-61
2023/09/22 02:39:18;;;;;;;0.40;0.40;;;14.00;99.90;;;;;;5073747;28;20245;-61
2023/09/22 02:41:44;;;;;;;0.30;0.30;;;14.00;99.90;;;;;;5073901;28;20181;-61
2023/09/22 02:44:12;;;;;;;0.40;0.40;;;14.00;99.90;;;;;;5073940;28;20968;-61
2023/09/22 02:46:37;;;;;;;0.40;0.40;;;13.90;99.90;;;;;;5073423;28;20441;-61
2023/09/22 02:49:03;;;;;;;2.33;0.70;;;13.90;99.90;;;;;;5073668;28;20461;-61
2023/09/22 02:51:29;;;;;;;0.30;0.30;;;14.00;99.90;;;;;;5073472;28;20416;-61
2023/09/22 02:53:55;;;;;;;0.40;0.40;;;14.00;99.90;;;;;;5072061;28;20487;-61
2023/09/22 02:56:21;;;;;;;0.30;0.30;;;14.00;99.90;;;;;;5072724;28;20225;-61
2023/09/22 02:58:48;;;;;;;0.40;0.40;;;14.00;99.90;;;;;;5073341;28;20417;-61
2023/09/22 03:01:14;;;;;;;1.43;0.50;;;14.00;99.90;;;;;;5073852;28;20937;-61
2023/09/22 03:03:43;;;;;;;0.50;0.50;;;13.90;99.90;;;;;;5073186;28;20440;-61
2023/09/22 03:06:12;;;;;;;0.40;0.40;;;13.90;99.90;;;;;;5072783;28;20517;-61
2023/09/22 03:08:39;;;;;;;0.40;0.40;;;13.90;99.90;;;;;;5073205;28;20755;-61
2023/09/22 03:11:05;;;;;;;0.30;0.30;;;14.00;99.90;;;;;;5073239;28;20507;-61
2023/09/22 03:13:31;;;;;;;0.40;0.40;;;14.00;99.90;;;;;;5073109;28;20475;-61
2023/09/22 03:15:57;;;;;;;0.37;0.37;;;13.90;99.90;;;;;;5072949;28;20431;-61
2023/09/22 03:18:24;;;;;;;3.20;0.90;;;14.00;99.90;;;;;;5072930;28;20404;-61
2023/09/22 03:20:49;;;;;;;1.30;0.50;;;14.00;99.90;;;;;;5073203;28;20797;-61
2023/09/22 03:23:16;;;;;;;0.57;0.57;;;14.00;99.90;;;;;;5072903;28;20400;-62
2023/09/22 03:25:44;;;;;;;0.40;0.40;;;14.00;99.90;;;;;;5072586;28;20228;-61
2023/09/22 03:28:10;;;;;;;0.30;0.30;;;14.10;99.90;;;;;;5072904;28;20493;-61
2023/09/22 03:30:36;;;;;;;0.93;0.93;;;14.10;99.90;;;;;;5072754;28;20879;-61
2023/09/22 03:33:02;;;;;;;0.40;0.40;;;14.10;99.90;;;;;;5072691;28;20406;-61
2023/09/22 03:35:27;;;;;;;0.40;0.40;;;14.10;99.90;;;;;;5072418;28;20512;-61
2023/09/22 03:37:55;;;;;;;0.70;0.70;;;14.10;99.90;;;;;;5072737;28;20206;-61
2023/09/22 03:40:32;;;;;;;0.80;0.40;;;14.10;99.90;;;;;;5072758;28;20292;-61
2023/09/22 03:42:59;;;;;;;0.70;0.70;;;14.10;99.90;;;;;;5072556;28;20789;-61
2023/09/22 03:45:24;;;;;;;0.40;0.40;;;14.00;99.90;;;;;;5072033;28;20412;-61
2023/09/22 03:47:50;;;;;;;0.40;0.40;;;14.00;99.90;;;;;;5072680;28;20410;-61
2023/09/22 03:50:17;;;;;;;0.30;0.30;;;14.10;99.90;;;;;;5072554;28;20409;-61
2023/09/22 03:52:43;;;;;;;0.40;0.40;;;14.20;99.90;;;;;;5072442;28;20611;-61
2023/09/22 03:55:09;;;;;;;0.40;0.40;;;14.30;99.90;;;;;;5072254;28;20500;-61
2023/09/22 03:57:35;;;;;;;0.80;0.60;;;14.20;99.90;;;;;;5071881;28;20493;-61
2023/09/22 04:00:01;;;;;;;0.63;0.60;;;14.30;99.90;;;;;;5072114;28;20399;-61
2023/09/22 04:02:27;;;;;;;0.50;0.50;;;14.30;99.90;;;;;;5072183;28;20192;-61
2023/09/22 04:04:54;;;;;;;0.60;0.50;;;14.30;99.90;;;;;;5071937;28;20228;-61
2023/09/22 04:07:19;;;;;;;0.40;0.37;;;14.30;99.90;;;;;;5071391;28;20442;-61
2023/09/22 04:09:45;;;;;;;0.37;0.37;;;14.20;99.90;;;;;;5071888;28;20403;-61
2023/09/22 04:12:11;;;;;;;0.37;0.37;;;14.20;99.90;;;;;;5071985;28;20179;-61
2023/09/22 04:14:37;;;;;;;0.40;0.40;;;14.10;99.90;;;;;;5071823;28;20185;-61
2023/09/22 04:17:04;;;;;;;0.40;0.40;;;14.10;99.90;;;;;;5071676;28;20467;-61
2023/09/22 04:19:33;;;;;;;0.70;0.70;;;14.00;99.90;;;;;;5072086;28;20252;-61
2023/09/22 04:22:00;;;;;;;0.40;0.40;;;14.00;99.90;;;;;;5071699;28;20416;-61
2023/09/22 04:24:31;;;;;;;0.40;0.40;;;14.00;99.90;;;;;;5071870;28;20468;-61
2023/09/22 04:27:01;;;;;;;0.40;0.40;;;14.00;99.90;;;;;;5071375;28;20438;-60
2023/09/22 04:29:27;;;;;;;0.40;0.40;;;14.00;99.90;;;;;;5071760;28;20464;-61
2023/09/22 04:31:53;;;;;;;0.60;0.60;;;14.00;99.90;;;;;;5071939;28;20484;-61
2023/09/22 04:34:19;;;;;;;0.80;0.40;;;14.20;99.90;;;;;;5071687;28;20490;-61
2023/09/22 04:36:46;;;;;;;1.50;1.40;;;14.20;99.90;;;;;;5071291;28;20592;-61
2023/09/22 04:39:14;;;;;;;0.40;0.40;;;14.20;99.90;;;;;;5071684;28;20435;-61
2023/09/22 04:41:40;;;;;;;0.60;0.50;;;14.20;99.90;;;;;;5071461;28;20499;-61
2023/09/22 04:44:06;;;;;;;0.30;0.30;;;14.00;99.90;;;;;;5071615;28;20478;-61
2023/09/22 04:46:33;;;;;;;0.40;0.40;;;14.10;99.90;;;;;;5071289;28;20432;-61
2023/09/22 04:48:58;;;;;;;0.67;0.67;;;14.10;99.90;;;;;;5071550;28;20461;-61
2023/09/22 04:51:27;;;;;;;0.40;0.40;;;14.00;99.90;;;;;;5071496;28;20416;-61
2023/09/22 04:53:52;;;;;;;0.80;0.73;;;13.90;99.90;;;;;;5071433;28;20177;-61
2023/09/22 04:56:19;;;;;;;0.40;0.40;;;14.00;99.90;;;;;;5070839;28;20809;-60
2023/09/22 04:58:46;;;;;;;0.40;0.40;;;14.00;99.90;;;;;;5071384;28;20651;-61
2023/09/22 05:01:14;;;;;;;1.33;1.07;;;14.00;99.90;;;;;;5071471;28;20401;-61
2023/09/22 05:03:40;;;;;;;0.50;0.50;;;14.00;99.90;;;;;;5071344;28;20503;-61
2023/09/22 05:06:06;;;;;;;0.60;0.60;;;14.00;99.90;;;;;;5070910;28;20546;-61
2023/09/22 05:08:33;;;;;;;0.57;0.57;;;14.00;99.90;;;;;;5071286;28;20181;-61
2023/09/22 05:11:03;;;;;;;0.50;0.50;;;14.10;99.90;;;;;;5071263;28;20435;-61
2023/09/22 05:13:29;;;;;;;0.50;0.40;;;14.20;99.90;;;;;;5071509;28;20788;-60
2023/09/22 05:15:54;;;;;;;1.00;0.40;;;14.20;99.90;;;;;;5070831;28;20488;-60
2023/09/22 05:18:20;;;;;;;0.60;0.60;;;14.20;99.90;;;;;;5071336;28;20211;-61
2023/09/22 05:20:45;;;;;;;0.73;0.50;;;14.10;99.90;;;;;;5074881;28;20174;-61
2023/09/22 05:23:11;;;;;;;0.40;0.40;;;14.10;99.90;;;;;;5075189;28;20178;-60
2023/09/22 05:25:40;;;;;;;0.60;0.60;;;14.10;99.90;;;;;;5074773;28;20258;-61
2023/09/22 05:28:11;;;;;;;0.40;0.40;;;14.10;99.90;;;;;;5075125;28;20170;-60
2023/09/22 05:30:38;;;;;;;0.43;0.43;;;14.00;99.90;;;;;;5075248;28;20446;-61
2023/09/22 05:33:07;;;;;;;0.50;0.50;;;14.10;99.90;;;;;;5075079;28;20813;-61
2023/09/22 05:35:36;;;;;;;0.40;0.40;;;14.10;99.90;;;;;;5074209;28;20474;-60
2023/09/22 05:38:06;;;;;;;6.97;0.80;;;14.00;99.90;;;;;;5074663;28;20447;-60
2023/09/22 05:40:35;;;;;;;0.40;0.40;;;14.00;99.90;;;;;;5074710;28;20808;-60
2023/09/22 05:43:04;;;;;;;0.50;0.40;;;14.10;99.90;;;;;;5074219;28;20498;-60
2023/09/22 05:45:31;;;;;;;0.50;0.50;;;14.20;99.90;;;;;;5074500;28;20455;-60
2023/09/22 05:47:56;;;;;;;0.47;0.47;;;14.20;99.90;;;;;;5074469;28;20421;-60
2023/09/22 05:50:23;;;;;;;0.90;0.60;;;14.20;99.90;;;;;;5074594;28;20774;-60
2023/09/22 05:52:52;;;;;;;0.40;0.40;;;14.20;99.90;;;;;;5074643;28;20645;-60
2023/09/22 05:55:22;;;;;;;0.50;0.50;;;14.20;99.90;;;;;;5074411;28;20411;-60
2023/09/22 05:57:48;;;;;;;0.40;0.40;;;14.30;99.90;;;;;;5056420;28;20457;-60
2023/09/22 06:00:17;;;;;;;0.40;0.40;;;14.30;99.90;;;;;;5074496;28;20465;-60
2023/09/22 06:02:47;;;;;;;0.40;0.40;;;14.30;99.90;;;;;;5074477;28;20819;-60
2023/09/22 06:05:14;;;;;;;0.40;0.40;;;14.20;99.90;;;;;;5074104;28;20435;-60
2023/09/22 06:07:40;;;;;;;0.30;0.30;;;14.00;99.90;;;;;;5074154;28;20410;-60
2023/09/22 06:10:06;;;;;;;0.40;0.40;;;14.00;99.90;;;;;;5074315;28;20711;-60
2023/09/22 06:12:32;;;;;;;1.60;0.60;;;14.00;99.90;;;;;;5074226;28;20184;-60
2023/09/22 06:15:00;;;;;;;1.60;0.77;;;14.00;99.90;;;;;;5074231;28;20777;-60
2023/09/22 06:17:26;;;;;;;0.50;0.50;;;14.00;99.90;;;;;;5073652;28;20209;-61
2023/09/22 06:19:52;;;;;;;0.60;0.60;;;14.00;99.90;;;;;;5074167;28;20921;-61
2023/09/22 06:22:17;;;;;;;0.43;0.40;;;14.10;99.90;;;;;;5074163;28;20247;-61
2023/09/22 06:24:43;;;;;;;0.50;0.50;;;14.10;99.90;;;;;;5074087;28;20444;-61
2023/09/22 06:27:09;;;;;;;0.40;0.40;;;14.10;99.90;;;;;;5073622;28;20197;-61
2023/09/22 06:29:35;;;;;;;0.50;0.50;;;14.00;99.90;;;;;;5074032;28;20189;-61
2023/09/22 06:32:01;;;;;;;0.50;0.50;;;14.00;99.90;;;;;;5073168;28;20234;-61
2023/09/22 06:34:27;;;;;;;0.50;0.40;;;14.00;99.90;;;;;;5073952;28;20411;-61
2023/09/22 06:36:52;;;;;;;0.60;0.60;;;14.10;99.90;;;;;;5073676;28;20555;-61
2023/09/22 06:39:18;;;;;;;0.40;0.40;;;14.20;99.90;;;;;;5073849;28;20471;-61
2023/09/22 06:41:43;;;;;;;0.40;0.40;;;14.10;99.90;;;;;;5073774;28;20166;-61
2023/09/22 06:44:10;;;;;;;0.40;0.40;;;14.10;99.90;;;;;;5074210;28;20162;-61
2023/09/22 06:46:35;;;;;;;0.30;0.30;;;14.10;99.90;;;;;;5073115;28;20278;-62
2023/09/22 06:49:05;;;;;;;0.67;0.57;;;14.00;99.90;;;;;;5073353;28;20527;-61
2023/09/22 06:51:31;;;;;;;0.50;0.50;;;13.90;99.90;;;;;;5073283;28;20184;-61
2023/09/22 06:53:57;;;;;;;0.40;0.40;;;13.90;99.90;;;;;;5073476;28;20417;-61
2023/09/22 06:56:22;;;;;;;1.33;0.50;;;13.90;99.90;;;;;;5072735;28;20504;-61
2023/09/22 06:58:49;;;;;;;0.40;0.40;;;14.00;99.90;;;;;;5054729;28;20595;-61
2023/09/22 07:01:16;;;;;;;0.57;0.57;;;14.00;99.90;;;;;;5072969;28;20455;-62
2023/09/22 07:03:43;;;;;;;0.40;0.40;;;14.00;99.90;;;;;;5073109;28;20399;-61
2023/09/22 07:06:13;;;;;;;0.40;0.40;;;14.00;99.90;;;;;;5072558;28;20833;-61
2023/09/22 07:08:39;;;;;;;0.60;0.57;;;13.90;99.90;;;;;;5073301;28;20423;-61
2023/09/22 07:11:08;;;;;;;0.40;0.40;;;13.80;99.90;;;;;;5073226;28;20539;-61
2023/09/22 07:13:34;;;;;;;0.40;0.40;;;13.90;99.90;;;;;;5072989;28;20839;-61
2023/09/22 07:16:00;;;;;;;0.90;0.70;;;14.00;99.90;;;;;;5072588;28;20430;-61
2023/09/22 07:18:26;;;;;;;0.40;0.40;;;14.20;99.90;;;;;;5073038;28;20450;-61
2023/09/22 07:20:53;;;;;;;0.60;0.50;;;14.20;99.90;;;;;;5073016;28;20181;-61
2023/09/22 07:23:20;;;;;;;0.50;0.50;;;14.30;99.90;;;;;;5072632;28;20412;-61
2023/09/22 07:25:56;;;;;;;1.00;0.43;;;14.30;99.90;;;;;;5072514;28;20431;-61
2023/09/22 07:28:22;;;;;;;0.50;0.50;;;14.30;99.90;;;;;;5072807;28;20897;-61
2023/09/22 07:30:47;;;;;;;0.50;0.50;;;14.40;99.90;;;;;;5072841;28;20485;-61
2023/09/22 07:33:13;;;;;;;0.40;0.40;;;14.50;99.90;;;;;;5072726;28;20176;-61
2023/09/22 07:35:41;;;;;;;0.40;0.40;;;14.50;99.90;;;;;;5072360;28;20254;-61
2023/09/22 07:38:06;;;;;;;0.30;0.30;;;14.60;99.90;;;;;;5072452;28;20245;-61
2023/09/22 07:40:32;;;;;;;0.30;0.30;;;14.60;99.90;;;;;;5072730;28;20430;-61
2023/09/22 07:42:58;;;;;;;0.40;0.40;;;14.60;99.90;;;;;;5071540;28;20671;-61
2023/09/22 07:45:23;;;;;;;0.50;0.50;;;14.80;99.90;;;;;;5072233;28;20252;-61
2023/09/22 07:47:49;;;;;;;2.60;0.70;;;14.80;99.90;;;;;;5072432;28;20638;-61
2023/09/22 07:50:15;;;;;;;0.40;0.40;;;14.90;99.90;;;;;;5072173;28;20414;-62
2023/09/22 07:52:43;;;;;;;0.40;0.40;;;14.90;99.90;;;;;;5072315;28;20204;-62
2023/09/22 07:55:09;;;;;;;1.60;0.57;;;14.80;99.90;;;;;;5072275;28;20413;-61
2023/09/22 07:57:35;;;;;;;0.40;0.40;;;14.80;99.90;;;;;;5072068;28;20462;-61
2023/09/22 08:00:01;;;;;;;0.40;0.40;;;14.70;99.90;;;;;;5071441;28;20417;-60
2023/09/22 08:02:27;;;;;;;0.60;0.50;;;14.70;99.90;;;;;;5070926;28;20415;-61
2023/09/22 08:04:52;;;;;;;0.40;0.40;;;14.60;99.90;;;;;;5071979;28;20396;-61
2023/09/22 08:07:18;;;;;;;0.40;0.40;;;14.60;99.90;;;;;;5071430;28;20286;-61
2023/09/22 08:09:44;;;;;;;0.47;0.47;;;14.60;99.90;;;;;;5072478;28;20643;-61
2023/09/22 08:12:09;;;;;;;0.53;0.53;;;14.60;99.90;;;;;;5071701;28;20173;-61
2023/09/22 08:14:36;;;;;;;0.40;0.40;;;14.60;99.90;;;;;;5071712;28;20594;-61
2023/09/22 08:17:07;;;;;;;0.40;0.40;;;14.50;99.90;;;;;;5071004;28;20200;-61
2023/09/22 08:19:33;;;;;;;1.47;0.63;;;14.40;99.90;;;;;;5071996;28;20403;-61
2023/09/22 08:21:59;;;;;;;0.30;0.30;;;14.30;99.90;;;;;;5071765;28;20512;-61
2023/09/22 08:24:25;;;;;;;0.90;0.90;;;14.30;99.90;;;;;;5053367;28;20653;-61
2023/09/22 08:26:51;;;;;;;0.30;0.30;;;14.10;99.90;;;;;;5071465;28;20514;-61
2023/09/22 08:29:18;;;;;;;0.97;0.70;;;14.10;99.90;;;;;;5070786;28;20722;-61
2023/09/22 08:31:43;;;;;;;0.40;0.40;;;14.20;99.90;;;;;;5066462;28;20234;-61
2023/09/22 08:34:11;;;;;;;0.30;0.30;;;14.20;99.90;;;;;;5071778;28;20507;-61
2023/09/22 08:36:36;;;;;;;0.33;0.33;;;14.40;99.90;;;;;;5070776;28;20203;-61
2023/09/22 08:39:02;;;;;;;0.40;0.40;;;14.50;99.90;;;;;;5071062;28;20559;-61
2023/09/22 08:41:31;;;;;;;0.50;0.43;;;14.50;99.90;;;;;;5071632;28;20232;-61
2023/09/22 08:43:58;;;;;;;0.97;0.80;;;14.40;99.90;;;;;;5071727;28;20473;-61
2023/09/22 08:46:24;;;;;;;0.50;0.40;;;14.20;99.90;;;;;;5071256;28;20435;-61
2023/09/22 08:48:51;;;;;;;0.40;0.40;;;14.10;99.90;;;;;;5071242;28;20926;-61
2023/09/22 08:51:18;;;;;;;2.83;0.50;;;14.10;99.90;;;;;;5071452;28;20209;-63
2023/09/22 08:53:43;;;;;;;0.40;0.40;;;14.20;99.90;;;;;;5070800;28;20808;-61
2023/09/22 08:56:10;;;;;;;0.80;0.80;;;14.30;99.90;;;;;;5071016;28;20518;-61
2023/09/22 08:58:36;;;;;;;0.93;0.67;;;14.50;99.90;;;;;;5071440;28;20654;-61
2023/09/22 09:01:02;;;;;;;0.60;0.50;;;14.70;99.90;;;;;;5071590;28;20404;-61
2023/09/22 09:03:30;;;;;;;1.13;0.40;;;15.10;99.90;;;;;;5071150;28;20553;-61
2023/09/22 09:06:08;;;;;;;2.30;0.87;;;15.50;99.90;;;;;;5070771;28;20907;-61
2023/09/22 09:08:34;;;;;;;1.00;1.00;;;16.00;99.70;;;;;;5071558;28;20411;-61
2023/09/22 09:11:06;;;;;;;0.63;0.43;;;16.20;99.00;;;;;;5071366;28;20490;-62
2023/09/22 09:13:34;;;;;;;0.50;0.50;;;16.50;98.50;;;;;;5070568;28;20473;-62
2023/09/22 09:16:06;;;;;;;0.40;0.40;;;16.50;98.50;;;;;;5060310;28;20435;-62
2023/09/22 09:18:32;;;;;;;0.50;0.50;;;16.50;98.10;;;;;;5065478;28;20448;-62
2023/09/22 09:21:12;;;;;;;0.37;0.37;;;16.20;98.20;;;;;;5068414;28;21037;-62
2023/09/22 09:23:54;;;;;;;0.50;0.40;;;15.90;98.70;;;;;;5071020;28;20396;-63
2023/09/22 09:26:26;;;;;;;0.77;0.50;;;15.70;99.50;;;;;;5070289;28;20432;-61
2023/09/22 09:28:53;;;;;;;0.67;0.47;;;15.50;99.90;;;;;;5070290;28;20413;-61
2023/09/22 09:31:20;;;;;;;0.40;0.40;;;15.40;98.90;;;;;;5070884;28;20411;-61
2023/09/22 09:33:54;;;;;;;1.60;0.87;;;15.40;99.90;;;;;;5071135;28;20487;-62
2023/09/22 09:36:20;;;;;;;0.60;0.60;;;15.40;99.10;;;;;;5070722;28;20451;-61
2023/09/22 09:38:46;;;;;;;0.40;0.40;;;15.50;99.80;;;;;;5071139;28;20417;-61
2023/09/22 09:41:12;;;;;;;0.77;0.77;;;15.80;99.90;;;;;;5071058;28;20403;-62
2023/09/22 09:43:42;;;;;;;2.10;1.10;;;16.50;99.90;;;;;;5070997;28;20514;-61
2023/09/22 09:46:10;;;;;;;0.40;0.40;;;17.20;99.80;;;;;;5070591;28;20682;-61
2023/09/22 09:48:39;;;;;;;0.70;0.70;;;17.60;98.10;;;;;;5070561;28;20410;-62
2023/09/22 09:51:11;;;;;;;1.17;0.90;;;17.80;96.90;;;;;;5052656;28;20557;-61
2023/09/22 09:53:44;;;;;;;0.47;0.47;;;18.10;97.40;;;;;;5065594;28;20515;-62
2023/09/22 09:56:15;;;;;;;3.60;1.27;;;18.40;97.50;;;;;;5060854;28;20445;-61
2023/09/22 09:58:42;;;;;;;1.80;0.63;;;18.80;97.10;;;;;;5063801;28;20461;-62
2023/09/22 10:01:08;;;;;;;1.67;0.53;;;18.80;94.50;;;;;;5059838;28;20503;-62
2023/09/22 10:03:39;;;;;;;2.00;0.80;;;18.70;95.80;;;;;;5067608;28;20800;-62
2023/09/22 10:06:08;;;;;;;0.67;0.50;;;18.40;95.00;;;;;;5059311;28;20484;-62
2023/09/22 10:08:34;;;;;;;1.27;0.60;;;18.00;94.90;;;;;;5056801;28;20818;-62
2023/09/22 10:11:03;;;;;;;0.40;0.40;;;17.60;97.00;;;;;;5068170;28;20427;-62
2023/09/22 10:13:29;;;;;;;0.40;0.40;;;17.30;95.30;;;;;;5067748;28;20422;-62
2023/09/22 10:16:00;;;;;;;0.57;0.50;;;17.20;96.40;;;;;;5066007;28;20488;-61
2023/09/22 10:18:45;;;;;;;0.60;0.57;;;17.30;98.00;;;;;;5068191;28;20407;-62
2023/09/22 10:21:29;;;;;;;1.00;0.53;;;17.40;97.40;;;;;;5070075;28;20409;-62
2023/09/22 10:24:16;;;;;;;0.40;0.40;;;17.40;95.00;;;;;;5060238;28;20407;-62
2023/09/22 10:26:58;;;;;;;0.57;0.57;;;17.50;96.30;;;;;;5063774;28;20471;-62
2023/09/22 10:29:33;;;;;;;4.57;0.73;;;17.50;96.40;;;;;;5069080;28;20440;-62
2023/09/22 10:34:51;;;;;;;0.40;0.40;;;17.20;96.00;;;;;;5065634;28;20407;-62
2023/09/22 10:37:21;;;;;;;0.40;0.40;;;17.10;97.70;;;;;;5069422;28;20488;-62
2023/09/22 10:39:58;;;;;;;0.50;0.50;;;17.10;97.80;;;;;;5067792;28;20417;-62
2023/09/22 10:42:29;;;;;;;0.90;0.50;;;17.00;96.60;;;;;;5068694;28;20914;-62
2023/09/22 10:45:00;;;;;;;0.40;0.40;;;16.90;97.00;;;;;;5066303;28;20408;-62
2023/09/22 10:47:37;;;;;;;0.40;0.40;;;16.90;96.50;;;;;;5065600;28;20432;-62
2023/09/22 10:50:31;;;;;;;1.80;0.70;;;16.70;96.80;;;;;;5066248;28;20508;-62
2023/09/22 10:53:02;;;;;;;0.30;0.30;;;16.40;97.60;;;;;;5059927;28;20416;-62
2023/09/22 10:55:30;;;;;;;0.40;0.40;;;16.20;97.60;;;;;;5057873;28;20496;-62
2023/09/22 10:57:57;;;;;;;3.77;0.43;;;16.40;98.30;;;;;;5063607;28;20466;-62
2023/09/22 11:00:23;;;;;;;0.90;0.67;;;16.60;98.40;;;;;;5070342;28;20417;-62
2023/09/22 11:02:49;;;;;;;9.50;1.23;;;16.80;96.70;;;;;;5064975;28;20405;-62
2023/09/22 11:05:16;;;;;;;0.60;0.60;;;17.10;96.10;;;;;;5068134;28;20810;-62
2023/09/22 11:07:42;;;;;;;1.13;0.80;;;17.30;94.90;;;;;;5067692;28;20183;-62
2023/09/22 11:10:09;;;;;;;2.10;0.63;;;17.40;95.10;;;;;;5069826;28;20413;-62
2023/09/22 11:12:35;;;;;;;0.40;0.40;;;17.50;95.50;;;;;;5065702;28;20423;-62
2023/09/22 11:15:04;;;;;;;0.90;0.60;;;17.30;95.40;;;;;;5068835;28;20405;-62
2023/09/22 11:17:42;;;;;;;3.10;0.83;;;17.30;96.30;;;;;;5062585;28;20237;-62
2023/09/22 11:20:14;;;;;;;0.47;0.47;;;17.30;95.20;;;;;;5067724;28;20419;-62
2023/09/22 11:22:41;;;;;;;0.50;0.50;;;17.70;95.20;;;;;;5056816;28;20465;-62
2023/09/22 11:25:10;;;;;;;0.60;0.60;;;18.00;94.40;;;;;;5065828;28;20420;-62
2023/09/22 11:27:52;;;;;;;0.50;0.50;;;18.30;94.20;;;;;;5055886;28;20945;-62
2023/09/22 11:30:27;;;;;;;0.60;0.60;;;18.70;93.40;;;;;;5056633;28;20485;-62
2023/09/22 11:32:54;;;;;;;0.50;0.50;;;18.90;92.80;;;;;;5067287;28;20414;-62
2023/09/22 11:35:32;;;;;;;0.97;0.90;;;18.90;93.50;;;;;;5060921;28;20451;-62
2023/09/22 11:37:58;;;;;;;0.40;0.40;;;18.60;92.90;;;;;;5065947;28;20877;-61
2023/09/22 11:40:28;;;;;;;0.60;0.60;;;18.50;93.20;;;;;;5066903;28;20416;-62
2023/09/22 11:42:54;;;;;;;0.40;0.40;;;18.80;94.10;;;;;;5065008;28;20757;-62
2023/09/22 11:45:23;;;;;;;0.43;0.40;;;18.80;94.30;;;;;;5053164;28;20783;-62
2023/09/22 11:48:01;;;;;;;1.60;0.60;;;18.70;95.00;;;;;;5063771;28;20564;-62
2023/09/22 11:50:27;;;;;;;0.40;0.40;;;18.80;95.10;;;;;;5064531;28;20413;-62
2023/09/22 11:53:08;;;;;;;0.50;0.50;;;18.60;95.00;;;;;;5068441;28;20422;-62
2023/09/22 11:55:34;;;;;;;2.00;0.50;;;18.60;94.30;;;;;;5060449;28;20246;-62
2023/09/22 11:58:01;;;;;;;0.50;0.50;;;18.60;93.50;;;;;;5060137;28;20802;-62
2023/09/22 12:00:27;;;;;;;0.40;0.40;;;18.60;94.20;;;;;;5065771;28;20446;-62
2023/09/22 12:02:52;;;;;;;0.50;0.40;;;18.80;93.60;;;;;;5060774;28;20415;-62
2023/09/22 12:05:18;;;;;;;2.60;0.50;;;18.80;94.30;;;;;;5062777;28;20470;-62
2023/09/22 12:07:44;;;;;;;0.50;0.50;;;18.60;94.20;;;;;;5070770;28;20528;-63
2023/09/22 12:10:09;;;;;;;0.70;0.40;;;18.20;93.20;;;;;;5061394;28;20181;-62
2023/09/22 12:12:35;;;;;;;0.97;0.80;;;18.00;94.10;;;;;;5069500;28;20176;-62
2023/09/22 12:15:01;;;;;;;0.40;0.40;;;17.80;94.60;;;;;;5059895;28;20235;-62
2023/09/22 12:17:26;;;;;;;0.50;0.50;;;17.90;94.70;;;;;;5066848;28;20203;-62
2023/09/22 12:19:52;;;;;;;0.50;0.50;;;17.90;94.00;;;;;;5064909;28;20182;-62
2023/09/22 12:22:18;;;;;;;0.57;0.57;;;17.90;93.60;;;;;;5067640;28;20414;-62
2023/09/22 12:24:44;;;;;;;0.40;0.40;;;18.00;94.00;;;;;;5062329;28;20769;-62
2023/09/22 12:27:09;;;;;;;0.63;0.63;;;17.80;94.00;;;;;;5065843;28;20231;-62
2023/09/22 12:29:36;;;;;;;1.17;1.10;;;17.60;94.40;;;;;;5059893;28;20177;-62
2023/09/22 12:32:02;;;;;;;0.40;0.40;;;17.70;94.50;;;;;;5065551;28;20271;-62
2023/09/22 12:34:28;;;;;;;2.20;0.80;;;17.70;94.40;;;;;;5065970;28;20940;-62
2023/09/22 12:36:54;;;;;;;1.60;0.43;;;17.80;94.90;;;;;;5063770;28;20470;-62
2023/09/22 12:39:19;;;;;;;0.73;0.70;;;17.80;94.50;;;;;;5052668;28;20183;-61
2023/09/22 12:41:45;;;;;;;0.63;0.50;;;17.70;94.50;;;;;;5071633;28;20168;-62
2023/09/22 12:44:11;;;;;;;0.70;0.60;;;17.70;94.00;;;;;;5071425;28;20643;-61
2023/09/22 12:46:36;;;;;;;0.60;0.60;;;17.50;93.40;;;;;;5071112;28;20208;-61
2023/09/22 12:49:02;;;;;;;0.73;0.53;;;17.40;94.10;;;;;;5071429;28;20175;-61
2023/09/22 12:51:28;;;;;;;0.73;0.57;;;17.40;93.80;;;;;;5071489;28;20171;-62